Time;durP1;ratioP1;P1;durP2;ratioP2;P2;SDS_P1;SDS_P2;PMS_P1;PMS_P2;Temp;Humidity;BMP_temperature;BMP_pressure;BME280_temperature;BME280_humidity;BME280_pressure;Samples;Min_cycle;Max_cycle;Signal;HPM_P1;HPM_P2
2022/01/07 00:02:22;;;;;;;4.13;1.30;;;;;;;13.84;81.75;101287.59;5048562;28;20127;-72
2022/01/07 00:04:49;;;;;;;5.47;1.90;;;;;;;13.85;81.79;101283.16;5047818;28;20048;-72
2022/01/07 00:07:17;;;;;;;4.05;1.45;;;;;;;13.84;81.74;101284.94;5047786;28;20041;-73
2022/01/07 00:09:45;;;;;;;5.80;1.30;;;;;;;13.83;81.75;101287.56;5048101;28;20061;-72
2022/01/07 00:12:13;;;;;;;7.13;1.55;;;;;;;13.84;81.69;101289.38;5047952;28;20032;-72
2022/01/07 00:14:41;;;;;;;2.92;1.10;;;;;;;13.82;81.54;101293.75;5030500;28;20503;-72
2022/01/07 00:17:10;;;;;;;3.13;1.38;;;;;;;13.84;81.68;101292.00;5048143;28;20064;-73
2022/01/07 00:19:37;;;;;;;5.50;1.40;;;;;;;13.82;81.45;101294.63;5047672;28;20076;-72
2022/01/07 00:22:05;;;;;;;3.67;1.33;;;;;;;13.83;81.53;101291.13;5065357;28;20086;-73
2022/01/07 00:24:33;;;;;;;4.60;1.35;;;;;;;13.83;81.42;101287.56;5069194;28;20120;-73
2022/01/07 00:27:01;;;;;;;5.38;1.50;;;;;;;13.83;81.35;101293.78;5067816;28;20040;-73
2022/01/07 00:29:28;;;;;;;3.97;1.17;;;;;;;13.84;81.22;101290.25;5069162;28;20037;-73
2022/01/07 00:31:57;;;;;;;2.97;1.00;;;;;;;13.87;81.02;101294.69;5068103;28;20040;-73
2022/01/07 00:34:26;;;;;;;4.22;1.30;;;;;;;13.88;80.83;101294.72;5067406;28;20055;-72
2022/01/07 00:36:54;;;;;;;5.28;1.33;;;;;;;13.86;80.77;101296.44;5068414;28;20040;-72
2022/01/07 00:39:21;;;;;;;8.77;1.95;;;;;;;13.87;80.75;101292.03;5068378;28;20078;-73
2022/01/07 00:41:49;;;;;;;4.50;1.70;;;;;;;13.86;80.57;101288.47;5067547;28;20488;-72
2022/01/07 00:44:17;;;;;;;2.35;0.75;;;;;;;13.84;80.42;101286.72;5069112;28;20048;-72
2022/01/07 00:46:44;;;;;;;3.67;1.60;;;;;;;13.84;80.41;101292.91;5065531;28;20056;-72
2022/01/07 00:49:13;;;;;;;3.40;1.30;;;;;;;13.83;80.32;101284.91;5068486;28;20044;-72
2022/01/07 00:51:42;;;;;;;3.65;1.30;;;;;;;13.83;80.29;101282.25;5069310;28;20714;-72
2022/01/07 00:54:10;;;;;;;4.15;1.00;;;;;;;13.81;80.15;101286.66;5066470;28;20052;-72
2022/01/07 00:56:37;;;;;;;3.60;1.00;;;;;;;13.80;80.12;101285.75;5069580;28;20045;-72
2022/01/07 00:59:05;;;;;;;5.93;1.77;;;;;;;13.79;79.97;101288.41;5067279;28;20472;-73
2022/01/07 01:01:32;;;;;;;7.45;1.60;;;;;;;13.78;79.87;101278.69;5068368;28;20102;-72
2022/01/07 01:04:00;;;;;;;3.22;1.30;;;;;;;13.75;79.73;101263.59;5069045;28;20049;-72
2022/01/07 01:06:27;;;;;;;3.25;1.13;;;;;;;13.73;79.79;101273.31;5068255;28;20655;-72
2022/01/07 01:08:57;;;;;;;4.30;0.98;;;;;;;13.71;79.63;101261.81;5068116;28;20052;-72
2022/01/07 01:11:24;;;;;;;2.75;1.10;;;;;;;13.70;79.78;101259.13;5069300;28;20040;-72
2022/01/07 01:13:52;;;;;;;7.00;1.45;;;;;;;13.68;79.57;101260.88;5066704;28;20091;-72
2022/01/07 01:16:20;;;;;;;8.60;1.50;;;;;;;13.67;79.42;101257.31;5049753;28;20041;-72
2022/01/07 01:18:47;;;;;;;2.63;1.00;;;;;;;13.66;79.28;101247.56;5047344;28;20037;-72
2022/01/07 01:21:15;;;;;;;3.22;1.30;;;;;;;13.66;79.15;101260.84;5046869;28;20213;-72
2022/01/07 01:23:45;;;;;;;3.60;1.23;;;;;;;13.66;78.99;101260.84;5046776;28;20061;-72
2022/01/07 01:26:18;;;;;;;3.75;1.30;;;;;;;13.66;78.98;101257.28;5048030;28;20037;-72
2022/01/07 01:28:46;;;;;;;3.38;1.35;;;;;;;13.62;79.02;101261.69;5030642;28;20132;-72
2022/01/07 01:31:17;;;;;;;3.13;1.40;;;;;;;13.62;79.02;101263.44;5047685;28;20045;-72
2022/01/07 01:33:46;;;;;;;6.63;1.55;;;;;;;13.62;78.84;101258.16;5051061;28;20045;-72
2022/01/07 01:36:14;;;;;;;3.67;1.25;;;;;;;13.57;78.73;101248.38;5050636;28;20430;-72
2022/01/07 01:38:44;;;;;;;2.47;1.13;;;;;;;13.57;78.76;101255.44;5034256;28;20575;-73
2022/01/07 01:41:12;;;;;;;2.20;1.13;;;;;;;13.58;78.68;101251.94;5067116;28;20440;-73
2022/01/07 01:43:41;;;;;;;4.38;0.98;;;;;;;13.60;78.53;101250.16;5051272;28;20068;-72
2022/01/07 01:46:10;;;;;;;4.05;1.80;;;;;;;13.60;78.42;101252.81;5052054;28;20591;-72
2022/01/07 01:48:37;;;;;;;2.65;1.08;;;;;;;13.57;78.31;101243.09;5068203;28;20710;-72
2022/01/07 01:51:05;;;;;;;2.65;1.02;;;;;;;13.56;78.28;101243.06;5070266;28;20516;-72
2022/01/07 01:53:33;;;;;;;3.17;1.20;;;;;;;13.51;78.32;101240.38;5070831;28;20090;-72
2022/01/07 01:56:01;;;;;;;3.42;1.30;;;;;;;13.47;78.40;101238.53;5070672;28;20156;-72
2022/01/07 01:58:29;;;;;;;3.78;1.30;;;;;;;13.43;78.32;101228.78;5072133;28;20115;-72
2022/01/07 02:00:58;;;;;;;5.57;1.83;;;;;;;13.41;78.21;101229.63;5060121;28;20047;-72
2022/01/07 02:03:26;;;;;;;1.92;1.02;;;;;;;13.36;78.22;101223.38;5051193;28;20069;-72
2022/01/07 02:05:54;;;;;;;4.57;1.60;;;;;;;13.34;78.13;101226.00;5052232;28;20516;-72
2022/01/07 02:08:22;;;;;;;4.07;1.45;;;;;;;13.29;78.02;101225.06;5050886;28;20508;-72
2022/01/07 02:10:49;;;;;;;5.72;1.90;;;;;;;13.21;77.85;101226.72;5050406;28;20045;-72
2022/01/07 02:13:18;;;;;;;4.80;1.50;;;;;;;13.15;77.89;101235.50;5051967;28;20061;-72
2022/01/07 02:15:47;;;;;;;2.83;1.33;;;;;;;13.10;77.94;101233.63;5051070;28;20044;-73
2022/01/07 02:18:17;;;;;;;4.65;1.90;;;;;;;13.10;77.90;101229.22;5050945;28;20516;-73
2022/01/07 02:20:48;;;;;;;9.82;1.77;;;;;;;13.05;77.85;101233.56;5050604;28;20688;-73
2022/01/07 02:23:16;;;;;;;4.88;1.85;;;;;;;13.01;77.81;101238.78;5051141;28;20103;-73
2022/01/07 02:25:44;;;;;;;3.72;1.60;;;;;;;12.96;77.76;101237.84;5049332;28;20497;-73
2022/01/07 02:28:13;;;;;;;4.88;1.65;;;;;;;12.91;77.75;101235.16;5029928;28;20037;-73
2022/01/07 02:30:42;;;;;;;3.67;1.73;;;;;;;12.87;77.73;101235.06;5041959;28;20068;-74
2022/01/07 02:33:09;;;;;;;6.20;1.83;;;;;;;12.83;77.64;101235.91;5050419;28;20037;-73
2022/01/07 02:35:38;;;;;;;3.92;1.60;;;;;;;12.78;77.63;101236.75;5049966;28;20076;-73
2022/01/07 02:38:08;;;;;;;6.82;1.98;;;;;;;12.76;77.61;101241.13;5051201;28;20034;-73
2022/01/07 02:40:35;;;;;;;4.22;1.67;;;;;;;12.73;77.57;101242.84;5051468;28;20056;-74
2022/01/07 02:43:03;;;;;;;5.53;1.85;;;;;;;12.72;77.46;101241.97;5051403;28;20041;-73
2022/01/07 02:45:30;;;;;;;5.40;1.80;;;;;;;12.70;77.49;101241.03;5049855;28;20053;-73
2022/01/07 02:48:01;;;;;;;8.68;1.90;;;;;;;12.66;77.43;101239.22;5051132;28;20041;-73
2022/01/07 02:50:33;;;;;;;5.50;1.50;;;;;;;12.64;77.71;101235.66;5051347;28;20043;-73
2022/01/07 02:53:02;;;;;;;3.97;1.48;;;;;;;12.60;77.82;101235.59;5049816;28;20439;-73
2022/01/07 02:55:31;;;;;;;5.07;1.70;;;;;;;12.57;77.91;101232.88;5049659;28;20106;-73
2022/01/07 02:57:58;;;;;;;5.90;1.88;;;;;;;12.50;77.76;101242.50;5049875;28;20115;-73
2022/01/07 03:00:28;;;;;;;4.47;1.45;;;;;;;12.48;78.03;101235.38;5049392;28;20405;-73
2022/01/07 03:02:57;;;;;;;5.63;1.60;;;;;;;12.40;77.86;101232.63;5051269;28;20523;-72
2022/01/07 03:05:25;;;;;;;5.10;1.77;;;;;;;12.35;77.91;101232.53;5051295;28;20037;-73
2022/01/07 03:07:52;;;;;;;5.18;1.55;;;;;;;12.30;77.83;101222.75;5049618;28;20493;-73
2022/01/07 03:10:23;;;;;;;4.18;1.60;;;;;;;12.26;77.89;101215.63;5050664;28;20041;-73
2022/01/07 03:12:52;;;;;;;5.32;1.73;;;;;;;12.25;77.95;101219.16;5049072;28;20711;-73
2022/01/07 03:15:20;;;;;;;6.38;1.80;;;;;;;12.24;77.92;101222.66;5049808;28;20045;-73
2022/01/07 03:17:47;;;;;;;3.70;1.90;;;;;;;12.22;77.80;101213.78;5050256;28;20037;-73
2022/01/07 03:20:17;;;;;;;5.32;1.80;;;;;;;12.23;77.95;101212.94;5047944;28;20124;-73
2022/01/07 03:22:46;;;;;;;3.65;1.50;;;;;;;12.25;78.04;101211.19;5049291;28;20508;-73
2022/01/07 03:25:14;;;;;;;7.43;1.73;;;;;;;12.30;78.38;101217.47;5050826;28;20046;-74
2022/01/07 03:27:42;;;;;;;2.13;1.23;;;;;;;12.37;78.51;101230.81;5050053;28;20505;-73
2022/01/07 03:30:14;;;;;;;5.38;1.38;;;;;;;12.38;78.60;101221.13;5050020;28;20033;-73
2022/01/07 03:32:42;;;;;;;5.60;1.63;;;;;;;12.43;78.65;101234.41;5028418;28;20049;-73
2022/01/07 03:35:11;;;;;;;7.55;2.15;;;;;;;12.46;78.72;101234.47;5046716;28;20041;-73
2022/01/07 03:37:39;;;;;;;6.88;1.60;;;;;;;12.47;78.79;101236.28;5032459;28;20045;-73
2022/01/07 03:40:08;;;;;;;4.65;1.77;;;;;;;12.47;78.84;101236.28;5066450;28;20408;-73
2022/01/07 03:42:36;;;;;;;3.65;1.45;;;;;;;12.50;78.83;101231.00;5068695;28;20052;-73
2022/01/07 03:45:04;;;;;;;7.22;1.65;;;;;;;12.53;78.84;101233.72;5067955;28;20049;-73
2022/01/07 03:47:33;;;;;;;4.65;1.75;;;;;;;12.54;78.70;101228.41;5067871;28;20037;-73
2022/01/07 03:50:01;;;;;;;3.30;1.90;;;;;;;12.52;78.66;101235.47;5069771;28;20749;-73
2022/01/07 03:52:30;;;;;;;4.45;1.50;;;;;;;12.56;78.62;101239.94;5068965;28;20043;-73
2022/01/07 03:54:57;;;;;;;3.80;1.90;;;;;;;12.62;78.47;101237.38;5067784;28;20057;-73
2022/01/07 03:57:25;;;;;;;4.78;2.20;;;;;;;12.69;78.37;101241.91;5069299;28;20045;-73
2022/01/07 03:59:53;;;;;;;3.78;1.73;;;;;;;12.73;78.21;101235.75;5067932;28;20504;-73
2022/01/07 04:02:21;;;;;;;7.05;1.95;;;;;;;12.71;78.00;101242.81;5068163;28;20416;-74
2022/01/07 04:04:50;;;;;;;6.47;2.03;;;;;;;12.72;77.90;101249.91;5068219;28;20045;-73
2022/01/07 04:07:18;;;;;;;4.22;1.83;;;;;;;12.71;77.68;101258.72;5069722;28;20040;-73
2022/01/07 04:09:46;;;;;;;3.72;1.80;;;;;;;12.69;77.75;101259.53;5067878;28;20056;-73
2022/01/07 04:12:14;;;;;;;4.88;1.75;;;;;;;12.71;77.82;101264.00;5069575;28;20044;-73
2022/01/07 04:14:41;;;;;;;5.05;1.90;;;;;;;12.75;77.96;101268.47;5069014;28;20557;-73
2022/01/07 04:17:09;;;;;;;4.35;1.63;;;;;;;12.75;77.95;101273.78;5057712;28;20071;-73
2022/01/07 04:19:36;;;;;;;3.15;1.85;;;;;;;12.75;77.92;101273.78;5047751;28;20636;-73
2022/01/07 04:22:06;;;;;;;3.55;1.70;;;;;;;12.80;77.77;101268.53;5058379;28;20049;-73
2022/01/07 04:24:33;;;;;;;4.13;1.65;;;;;;;12.83;77.69;101270.34;5003550;28;20130;-73
2022/01/07 04:27:01;;;;;;;5.53;2.03;;;;;;;12.85;77.63;101273.91;5029834;28;20096;-74
2022/01/07 04:29:28;;;;;;;3.38;1.85;;;;;;;12.88;77.51;101280.13;5046852;28;20676;-74
2022/01/07 04:31:56;;;;;;;3.88;1.50;;;;;;;12.93;77.40;101285.53;5048745;28;20056;-73
2022/01/07 04:34:24;;;;;;;7.18;2.03;;;;;;;12.96;77.46;101285.56;5047461;28;20644;-73
2022/01/07 04:36:51;;;;;;;5.00;1.95;;;;;;;12.98;77.41;101281.16;5048852;28;20045;-73
2022/01/07 04:39:20;;;;;;;7.22;4.07;;;;;;;13.02;77.52;101285.63;5047523;28;20064;-73
2022/01/07 04:41:48;;;;;;;7.57;4.68;;;;;;;12.97;77.62;101282.94;5049234;28;20048;-73
2022/01/07 04:44:16;;;;;;;11.80;9.13;;;;;;;13.00;77.85;101276.75;5048175;28;20102;-73
2022/01/07 04:46:44;;;;;;;13.13;7.53;;;;;;;13.03;77.84;101276.81;5044675;28;20037;-73
2022/01/07 04:49:11;;;;;;;12.00;6.47;;;;;;;13.03;77.93;101275.06;5027872;28;20065;-73
2022/01/07 04:51:39;;;;;;;9.77;5.13;;;;;;;13.06;78.04;101275.09;5041413;28;20049;-73
2022/01/07 04:54:06;;;;;;;7.15;2.80;;;;;;;13.08;78.00;101281.31;5045885;28;20087;-73
2022/01/07 04:56:36;;;;;;;5.70;3.40;;;;;;;13.13;78.01;101284.03;5049406;28;20133;-73
2022/01/07 04:59:03;;;;;;;5.75;3.45;;;;;;;13.11;78.05;101281.38;5046282;28;20439;-73
2022/01/07 05:01:31;;;;;;;5.65;2.83;;;;;;;13.11;78.09;101297.28;5046975;28;20045;-73
2022/01/07 05:03:59;;;;;;;6.05;2.40;;;;;;;13.08;78.12;101301.63;5047675;28;20048;-73
2022/01/07 05:06:44;;;;;;;3.47;1.65;;;;;;;13.02;78.32;101291.81;5047343;28;20095;-73
2022/01/07 05:09:12;;;;;;;6.63;3.60;;;;;;;13.03;78.59;101303.31;5050550;28;20040;-73
2022/01/07 05:11:41;;;;;;;7.32;4.38;;;;;;;13.07;78.59;101299.84;5052257;28;20107;-73
2022/01/07 05:14:09;;;;;;;8.25;4.78;;;;;;;13.08;78.49;101305.16;5070503;28;20390;-72
2022/01/07 05:16:37;;;;;;;10.52;5.13;;;;;;;13.12;78.57;101306.13;5071141;28;20075;-73
2022/01/07 05:19:05;;;;;;;8.75;4.07;;;;;;;13.18;78.61;101308.00;5071046;28;20086;-73
2022/01/07 05:21:32;;;;;;;6.43;3.55;;;;;;;13.18;78.51;101308.00;5054561;28;20127;-72
2022/01/07 05:24:00;;;;;;;10.52;6.07;;;;;;;13.25;78.48;101301.91;5072356;28;20044;-73
2022/01/07 05:26:28;;;;;;;13.20;6.45;;;;;;;13.28;78.47;101310.78;5070815;28;20040;-72
2022/01/07 05:28:58;;;;;;;11.57;5.75;;;;;;;13.33;78.67;101309.06;5071059;28;20044;-73
2022/01/07 05:31:26;;;;;;;12.93;6.32;;;;;;;13.30;78.72;101306.41;5071094;28;20032;-73
2022/01/07 05:33:55;;;;;;;13.70;6.03;;;;;;;13.27;78.86;101301.03;5072575;28;20125;-73
2022/01/07 05:36:23;;;;;;;24.25;15.60;;;;;;;13.23;79.12;101299.22;5070674;28;20399;-73
2022/01/07 05:38:52;;;;;;;38.50;22.55;;;;;;;13.21;79.33;101303.59;5071052;28;20041;-73
2022/01/07 05:41:20;;;;;;;21.90;13.38;;;;;;;13.20;79.32;101299.16;5071856;28;20461;-73
2022/01/07 05:43:49;;;;;;;17.25;10.00;;;;;;;13.23;79.41;101301.88;5072006;28;20036;-73
2022/01/07 05:46:18;;;;;;;12.65;6.15;;;;;;;13.22;79.49;101305.41;5070766;28;20045;-72
2022/01/07 05:48:46;;;;;;;8.70;5.22;;;;;;;13.18;79.78;101306.22;5071907;28;20072;-73
2022/01/07 05:51:15;;;;;;;7.22;4.00;;;;;;;13.14;79.98;101312.34;5070417;28;20369;-73
2022/01/07 05:53:43;;;;;;;12.07;5.32;;;;;;;13.13;80.16;101315.84;5070866;28;20052;-73
2022/01/07 05:56:11;;;;;;;11.68;7.50;;;;;;;13.14;80.42;101312.34;5070924;28;20040;-73
2022/01/07 05:58:38;;;;;;;11.38;5.82;;;;;;;13.14;80.72;101321.19;5070268;28;20481;-73
2022/01/07 06:01:08;;;;;;;13.85;7.30;;;;;;;13.15;80.88;101319.44;5070165;28;20044;-73
2022/01/07 06:03:37;;;;;;;22.90;12.23;;;;;;;13.12;80.93;101319.38;5070148;28;20493;-73
2022/01/07 06:06:05;;;;;;;23.42;13.43;;;;;;;13.03;81.00;101316.56;5070844;28;20045;-73
2022/01/07 06:08:32;;;;;;;19.13;10.85;;;;;;;13.00;80.93;101322.72;5070028;28;20124;-72
2022/01/07 06:11:01;;;;;;;12.63;6.25;;;;;;;13.00;80.81;101317.41;5071890;28;20072;-73
2022/01/07 06:13:28;;;;;;;9.43;4.78;;;;;;;13.02;80.95;101317.44;5071836;28;20504;-73
2022/01/07 06:15:56;;;;;;;12.77;4.85;;;;;;;12.93;81.24;101319.97;5070722;28;20071;-73
2022/01/07 06:18:24;;;;;;;14.95;7.18;;;;;;;12.87;81.59;101334.00;5071464;28;20040;-73
2022/01/07 06:20:53;;;;;;;10.18;5.97;;;;;;;12.89;81.88;101324.31;5071894;28;20079;-73
2022/01/07 06:23:21;;;;;;;9.23;5.43;;;;;;;13.06;82.48;101324.59;5071220;28;20048;-73
2022/01/07 06:25:49;;;;;;;9.63;5.10;;;;;;;13.38;83.28;101333.91;5069512;28;20129;-73
2022/01/07 06:28:18;;;;;;;10.07;5.60;;;;;;;13.59;83.91;101332.41;5071351;28;20041;-73
2022/01/07 06:30:46;;;;;;;7.95;6.38;;;;;;;13.82;84.58;101338.88;5070595;28;20076;-73
2022/01/07 06:33:13;;;;;;;8.90;5.60;;;;;;;13.95;84.75;101338.13;5070824;28;20124;-74
2022/01/07 06:35:41;;;;;;;7.85;4.57;;;;;;;14.15;84.95;101338.34;5070222;28;20410;-73
2022/01/07 06:38:10;;;;;;;6.30;4.07;;;;;;;14.47;85.21;101334.25;5071724;28;20135;-72
2022/01/07 06:40:37;;;;;;;8.52;3.58;;;;;;;14.52;85.31;101337.84;5071174;28;20124;-73
2022/01/07 06:43:05;;;;;;;7.28;2.95;;;;;;;14.68;85.42;101341.53;5070109;28;20115;-73
2022/01/07 06:45:33;;;;;;;10.15;5.68;;;;;;;14.90;85.64;101340.78;5070086;28;20044;-73
2022/01/07 06:48:00;;;;;;;6.95;3.92;;;;;;;15.15;85.66;101341.88;5069714;28;20037;-74
2022/01/07 06:50:28;;;;;;;9.18;4.03;;;;;;;15.41;85.70;101350.00;5070828;28;20037;-73
2022/01/07 06:52:56;;;;;;;8.80;5.50;;;;;;;15.68;85.31;101344.84;5070561;28;20063;-73
2022/01/07 06:55:25;;;;;;;11.73;6.57;;;;;;;15.93;84.47;101357.34;5067953;28;20079;-74
2022/01/07 06:57:52;;;;;;;12.98;6.63;;;;;;;16.08;83.95;101352.97;5069721;28;20396;-74
2022/01/07 07:00:20;;;;;;;12.63;7.28;;;;;;;16.37;83.32;101350.34;5070393;28;20041;-74
2022/01/07 07:02:47;;;;;;;16.67;11.10;;;;;;;16.57;82.32;101349.47;5069898;28;20040;-74
2022/01/07 07:05:15;;;;;;;15.73;11.55;;;;;;;16.77;80.57;101346.84;5069080;28;20046;-73
2022/01/07 07:07:42;;;;;;;19.40;12.10;;;;;;;16.93;78.71;101350.41;5071141;28;20090;-74
2022/01/07 07:10:10;;;;;;;16.45;13.27;;;;;;;17.14;78.07;101351.25;5070813;28;20053;-74
2022/01/07 07:12:39;;;;;;;18.48;14.70;;;;;;;17.36;77.83;101345.88;5069052;28;20129;-74
2022/01/07 07:15:07;;;;;;;19.10;14.93;;;;;;;17.57;77.27;101353.81;5069663;28;20052;-73
2022/01/07 07:17:36;;;;;;;24.20;18.40;;;;;;;17.77;76.40;101343.06;5068354;28;20044;-73
2022/01/07 07:20:04;;;;;;;19.95;16.23;;;;;;;17.91;74.47;101338.56;5069569;28;20055;-73
2022/01/07 07:22:31;;;;;;;25.40;20.33;;;;;;;18.10;73.36;101342.00;5067487;28;20044;-74
2022/01/07 07:24:59;;;;;;;18.60;15.27;;;;;;;18.30;71.97;101337.44;5033461;28;20746;-73
2022/01/07 07:27:27;;;;;;;16.60;14.32;;;;;;;18.47;71.17;101337.28;5048369;28;20102;-74
2022/01/07 07:29:56;;;;;;;18.88;15.77;;;;;;;18.66;70.90;101338.97;5039470;28;20524;-74
2022/01/07 07:32:27;;;;;;;25.48;22.88;;;;;;;18.80;70.01;101334.38;5030148;28;20041;-74
2022/01/07 07:35:13;;;;;;;31.20;28.00;;;;;;;18.98;69.27;101336.88;5034825;28;20041;-73
2022/01/07 07:37:40;;;;;;;26.02;23.42;;;;;;;19.16;68.60;101340.28;5048680;28;20377;-74
2022/01/07 07:40:09;;;;;;;20.48;18.02;;;;;;;19.31;67.62;101335.63;5048605;28;20041;-73
2022/01/07 07:42:36;;;;;;;19.45;17.13;;;;;;;19.47;65.05;101329.25;5049939;28;20108;-74
2022/01/07 07:45:13;;;;;;;17.25;12.52;;;;;;;19.60;64.14;101337.13;5061830;28;20037;-75
2022/01/07 07:47:41;;;;;;;14.20;11.35;;;;;;;19.72;63.46;101336.97;5045045;28;20566;-74
2022/01/07 07:50:09;;;;;;;8.45;6.65;;;;;;;19.78;62.12;101337.78;5051848;28;20037;-74
2022/01/07 07:52:37;;;;;;;6.95;5.30;;;;;;;19.84;60.75;101332.34;5049050;28;20123;-74
2022/01/07 07:55:06;;;;;;;6.25;3.67;;;;;;;19.88;59.51;101334.09;5031053;28;20099;-73
2022/01/07 07:57:33;;;;;;;3.08;1.25;;;;;;;19.88;58.37;101323.38;5045232;28;20057;-74
2022/01/07 08:00:03;;;;;;;1.55;1.05;;;;;;;19.87;57.04;101329.66;5041882;28;22573;-73
2022/01/07 08:02:43;;;;;;;2.67;1.00;;;;;;;19.77;56.07;101327.97;5059967;28;20688;-73
2022/01/07 08:05:11;;;;;;;1.67;0.65;;;;;;;19.75;55.74;101329.81;5045184;28;20091;-73
2022/01/07 08:07:39;;;;;;;2.90;0.88;;;;;;;19.81;55.53;101326.16;5040285;28;20052;-72
2022/01/07 08:10:08;;;;;;;1.63;0.70;;;;;;;19.82;54.52;101327.94;5027715;28;20496;-73
2022/01/07 08:18:18;;;;;;;2.65;0.70;;;;;;;20.00;54.02;101325.00;5038447;28;20052;-72
2022/01/07 08:20:45;;;;;;;1.70;0.80;;;;;;;20.02;53.54;101333.88;5045653;28;20055;-71
2022/01/07 08:23:15;;;;;;;2.22;0.50;;;;;;;20.15;53.67;101323.91;5060008;28;20059;-70
2022/01/07 08:25:44;;;;;;;1.77;0.80;;;;;;;20.12;53.48;101319.47;5065958;28;20044;-71
2022/01/07 08:28:13;;;;;;;4.53;1.10;;;;;;;20.21;53.30;101322.00;5064148;28;20098;-71
2022/01/07 08:36:23;;;;;;;8.27;4.45;;;;;;;20.17;51.67;101320.25;5034766;28;20055;-70
2022/01/07 08:38:52;;;;;;;5.05;4.03;;;;;;;20.28;52.08;101318.28;5081646;28;20470;-70
2022/01/07 08:41:21;;;;;;;8.20;6.90;;;;;;;20.35;51.11;101312.91;5084590;28;20040;-71
2022/01/07 08:43:49;;;;;;;5.63;2.20;;;;;;;20.35;50.07;101308.41;5083280;28;20094;-71
2022/01/07 08:46:17;;;;;;;10.00;7.13;;;;;;;20.21;50.05;101299.66;5083399;28;20127;-71
2022/01/07 08:48:46;;;;;;;2.05;1.40;;;;;;;20.25;50.10;101291.53;5084853;28;20040;-71
2022/01/07 08:51:14;;;;;;;1.92;1.00;;;;;;;20.32;49.97;101288.78;5084500;28;20044;-70
2022/01/07 08:53:42;;;;;;;4.57;2.28;;;;;;;20.32;50.18;101292.34;5083830;28;20040;-70
2022/01/07 08:56:10;;;;;;;2.08;1.00;;;;;;;20.26;49.42;101292.44;5068253;28;20036;-71
2022/01/07 08:58:38;;;;;;;0.63;0.50;;;;;;;20.25;49.13;101278.13;5082487;28;20098;-70
2022/01/07 09:01:06;;;;;;;7.80;6.35;;;;;;;20.29;49.59;101277.16;5084313;28;20044;-71
2022/01/07 09:03:34;;;;;;;14.10;11.00;;;;;;;20.37;49.49;101276.19;5085445;28;20049;-71
2022/01/07 09:06:03;;;;;;;8.43;6.47;;;;;;;20.52;49.95;101274.16;5085695;28;20048;-71
2022/01/07 09:08:31;;;;;;;3.88;2.90;;;;;;;20.50;49.44;101273.28;5084564;28;20033;-71
2022/01/07 09:10:58;;;;;;;1.60;0.90;;;;;;;20.45;49.25;101267.13;5080597;28;20048;-71
2022/01/07 09:13:26;;;;;;;4.53;0.85;;;;;;;20.40;49.14;101257.38;5091455;28;20105;-71
2022/01/07 09:15:54;;;;;;;3.17;1.00;;;;;;;20.37;49.40;101265.47;5084367;28;20032;-71
2022/01/07 09:18:22;;;;;;;4.20;2.03;;;;;;;20.47;49.85;101265.31;5083792;28;20033;-71
2022/01/07 09:20:50;;;;;;;1.77;0.80;;;;;;;20.50;49.79;101265.25;5085063;28;20044;-73
2022/01/07 09:23:19;;;;;;;5.72;2.08;;;;;;;20.49;49.76;101268.81;5085534;28;20036;-72
2022/01/07 09:25:47;;;;;;;2.63;1.20;;;;;;;20.40;48.55;101252.91;5083798;28;20036;-71
2022/01/07 09:28:15;;;;;;;2.20;1.00;;;;;;;20.33;48.77;101261.06;5082992;28;20048;-72
2022/01/07 09:30:43;;;;;;;2.58;1.35;;;;;;;20.38;48.80;101249.34;5083216;28;20102;-75
2022/01/07 09:33:10;;;;;;;1.92;1.08;;;;;;;20.40;48.80;101244.88;5084752;28;20048;-72
2022/01/07 09:35:38;;;;;;;2.67;1.15;;;;;;;20.42;48.50;101248.38;5082494;28;20056;-72
2022/01/07 09:38:05;;;;;;;4.43;1.40;;;;;;;20.42;48.45;101247.50;5084305;28;20040;-73
2022/01/07 09:40:35;;;;;;;1.88;0.90;;;;;;;20.53;48.11;101240.16;5082063;28;20084;-73
2022/01/07 09:43:05;;;;;;;4.18;1.50;;;;;;;20.49;48.55;101236.63;5079542;28;20037;-73
2022/01/07 09:45:34;;;;;;;2.63;1.20;;;;;;;20.44;48.27;101229.59;5070496;28;20050;-72
2022/01/07 09:48:02;;;;;;;3.17;1.30;;;;;;;20.46;48.75;101230.44;5069310;28;20051;-72
2022/01/07 09:50:32;;;;;;;3.22;1.30;;;;;;;20.38;48.25;101227.00;5069440;28;20623;-72
2022/01/07 09:53:05;;;;;;;2.42;1.30;;;;;;;20.36;48.45;101221.66;5069461;28;20105;-72
2022/01/07 09:55:34;;;;;;;2.80;1.35;;;;;;;20.35;49.25;101222.56;5067553;28;20055;-71
2022/01/07 09:58:03;;;;;;;3.15;1.10;;;;;;;20.45;49.24;101207.22;5069785;28;20045;-72
2022/01/07 10:00:35;;;;;;;4.78;2.05;;;;;;;20.35;48.76;101211.00;5068649;28;20080;-72
2022/01/07 10:03:05;;;;;;;4.57;1.40;;;;;;;20.32;48.50;101203.84;5065384;28;20051;-73
2022/01/07 10:05:32;;;;;;;3.17;1.00;;;;;;;20.34;49.10;101206.53;5069994;28;20048;-73
2022/01/07 10:08:22;;;;;;;3.97;1.70;;;;;;;20.27;49.21;101203.03;5071925;28;20087;-73
2022/01/07 10:11:12;;;;;;;4.70;1.08;;;;;;;20.18;49.40;101203.19;5071631;28;20052;-74
2022/01/07 10:13:40;;;;;;;3.72;1.77;;;;;;;20.14;50.26;101199.69;5073107;28;20047;-73
2022/01/07 10:16:16;;;;;;;3.42;1.00;;;;;;;20.25;50.34;101191.44;5070556;28;20064;-73
2022/01/07 10:18:45;;;;;;;4.72;1.75;;;;;;;20.32;50.08;101189.53;5071018;28;20047;-73
2022/01/07 10:21:13;;;;;;;2.45;1.20;;;;;;;20.38;50.14;101178.75;5071824;28;20033;-73
2022/01/07 10:23:43;;;;;;;5.15;2.63;;;;;;;20.38;49.77;101184.09;5071185;28;20037;-73
2022/01/07 10:26:21;;;;;;;8.48;5.57;;;;;;;20.48;49.93;101183.03;5071367;28;20049;-75
2022/01/07 10:28:51;;;;;;;5.38;4.25;;;;;;;20.57;49.91;101170.31;5071240;28;20400;-74
2022/01/07 10:31:23;;;;;;;4.22;2.60;;;;;;;20.60;49.53;101172.97;5070720;28;20037;-74
2022/01/07 10:33:53;;;;;;;10.93;9.10;;;;;;;20.76;49.99;101164.59;5072046;28;20044;-74
2022/01/07 10:36:22;;;;;;;6.60;3.00;;;;;;;20.86;50.07;101167.09;5071284;28;20058;-75
2022/01/07 10:38:53;;;;;;;3.17;1.85;;;;;;;20.92;49.59;101155.34;5072282;28;20052;-75
2022/01/07 10:41:23;;;;;;;2.70;1.00;;;;;;;20.81;49.10;101149.28;5071015;28;20029;-75
2022/01/07 10:43:52;;;;;;;5.18;1.20;;;;;;;20.81;49.09;101143.91;5067891;28;20037;-74
2022/01/07 10:46:24;;;;;;;2.25;0.70;;;;;;;20.92;48.63;101152.66;5063305;28;20090;-74
2022/01/07 10:48:54;;;;;;;3.28;1.15;;;;;;;20.76;48.72;101149.38;5070812;28;20052;-74
2022/01/07 10:51:24;;;;;;;2.72;0.93;;;;;;;20.67;48.93;101145.09;5071089;28;20405;-75
2022/01/07 10:53:54;;;;;;;2.38;1.05;;;;;;;20.74;49.12;101148.53;5071484;28;20040;-75
2022/01/07 10:56:25;;;;;;;2.58;0.63;;;;;;;20.75;48.99;101139.56;5069361;28;20042;-74
2022/01/07 10:59:03;;;;;;;1.58;1.00;;;;;;;20.70;48.79;101133.41;5072283;28;20044;-76
2022/01/07 11:01:43;;;;;;;1.70;1.08;;;;;;;20.81;49.05;101135.84;5072067;28;20036;-74
2022/01/07 11:04:13;;;;;;;2.17;1.00;;;;;;;20.78;48.42;101127.88;5069329;28;20047;-74
2022/01/07 11:06:42;;;;;;;2.65;1.08;;;;;;;20.68;48.69;101130.75;5071408;28;20044;-74
2022/01/07 11:09:12;;;;;;;6.07;1.08;;;;;;;20.65;48.67;101132.63;5071267;28;20036;-75
2022/01/07 11:12:00;;;;;;;1.33;0.77;;;;;;;20.72;48.74;101131.59;5071218;28;20399;-76
2022/01/07 11:14:29;;;;;;;5.80;2.13;;;;;;;20.60;48.75;101126.47;5069475;28;20048;-74
2022/01/07 11:20:33;;;;;;;3.28;1.05;;;;;;;20.40;48.90;101128.66;5107246;27;20522;-78
2022/01/07 11:23:01;;;;;;;3.15;1.08;;;;;;;20.35;48.89;101130.53;5097171;28;20511;-78
2022/01/07 11:25:33;;;;;;;3.00;1.10;;;;;;;20.41;49.21;101127.75;5105594;27;20486;-76
2022/01/07 11:29:54;;;;;;;2.08;0.80;;;;;;;20.53;49.51;101114.97;5110553;27;20473;-77
2022/01/07 11:32:40;;;;;;;2.88;0.90;;;;;;;20.46;49.10;101121.38;5123782;27;20381;-75
2022/01/07 11:35:45;;;;;;;2.00;0.90;;;;;;;20.23;48.98;101126.22;5103398;27;20105;-75
2022/01/07 11:38:42;;;;;;;2.00;1.17;;;;;;;19.79;49.74;101117.16;5100294;27;20040;-75
2022/01/07 11:41:17;;;;;;;3.58;1.50;;;;;;;19.57;49.71;101118.41;5106396;28;20036;-76
2022/01/07 11:43:47;;;;;;;3.67;1.67;;;;;;;19.64;49.96;101122.75;5107347;27;20069;-76
2022/01/07 11:46:28;;;;;;;3.05;1.85;;;;;;;19.86;49.83;101105.44;5122421;27;20067;-75
2022/01/07 11:48:58;;;;;;;2.78;1.00;;;;;;;20.04;49.69;101106.91;5128167;27;20081;-75